Ottumwa Regional Airport
KOTM : now visible

Airfield :











YOU CAN JOIN US ON...

 
LOGIN :

Register | Disclaimer

   EN    FR    IT 

 









Legend :    VFR   Marginal VFR   IFR   Intensive IFR   Very Intensive IFR
Visi :
Ceiling :
>= 8 km
>= 3000ft
5 to 8 km
1000 to 3000 ft
1500m to 5 km
500 to 1000 ft
800 to 1500m
200 to 500 ft
< 800m
< 200 ft
Symbols :   Thunderstorms  Fog  Heavy snow  Heavy precipitations  Wind > 20 kt






- Airport Elevation : 845 ft
- IATA code : OTM


KOTM - Ottumwa Regional

CURRENT METAR :
  • 171353Z AUTO 17007KT 6SM HZ OVC100 03/00 A2992 RMK AO2 SLP140 T00330000

EXPIRED METARs :
  • 171253Z AUTO 17009KT 7SM OVC100 03/M01 A2993 RMK AO2 SLP140 T00281006
  • 171153Z AUTO 19006KT 7SM SCT120 03/M01 A2996 RMK AO2 SLP149 T00281006 10028 20022 56014

TAF KOTM
Valid from the 17 at 12:00 until the 18 at 12:00 UTC


171120Z 1712/1812 18005KT P6SM OVC090
FM171500 23005KT P6SM VCSH OVC050
TEMPO 1715/1717 5SM -RA BR OVC030
FM171700 31005KT P6SM VCSH OVC025
FM171800 32006KT P6SM OVC015
FM181000 00000KT P6SM BKN010



MET'MAP, your aeronautical weather chart ! - Copyright ORBIFLY December 2007 - Disclaimer

ORBIFLY MET'MAP TEAM :

Programming & Development : Alexandra Zaïnal
Concept & Development : Baudouin d'Aumeries
Co-Development & Prog : Marc-Olivier Méhu
Technical & hardware support : Manuel Goepfert

Contact : metmap@orbifly.com




SOURCES & CREDITS :

   NOAA       Earth
Advisory